createdAt,value
2023-03-02T00:01:55.181Z,1.12
2023-03-02T00:04:27.914Z,1.09
2023-03-02T00:07:01.899Z,1.07
2023-03-02T00:09:31.292Z,1.07
2023-03-02T00:11:59.714Z,1.07
2023-03-02T00:14:28.057Z,1.08
2023-03-02T00:16:56.373Z,1.07
2023-03-02T00:19:24.710Z,1.06
2023-03-02T00:21:53.047Z,1.06
2023-03-02T00:24:22.812Z,1.05
2023-03-02T00:26:51.126Z,1.08
2023-03-02T00:29:19.488Z,1.10
2023-03-02T00:31:48.002Z,1.12
2023-03-02T00:34:21.307Z,1.09
2023-03-02T00:36:50.054Z,1.08
2023-03-02T00:39:20.222Z,1.08
2023-03-02T00:41:50.083Z,1.08
2023-03-02T00:44:18.497Z,1.08
2023-03-02T00:46:47.438Z,1.08
2023-03-02T00:49:15.803Z,1.08
2023-03-02T00:51:44.100Z,1.09
2023-03-02T00:54:12.404Z,1.13
2023-03-02T00:56:40.827Z,1.19
2023-03-02T00:59:26.522Z,1.22
2023-03-02T01:01:58.222Z,1.24
2023-03-02T01:04:29.681Z,1.23
2023-03-02T01:06:58.669Z,1.22
2023-03-02T01:09:27.584Z,1.21
2023-03-02T01:11:55.896Z,1.21
2023-03-02T01:14:26.161Z,1.23
2023-03-02T01:16:54.628Z,1.25
2023-03-02T01:19:22.964Z,1.27
2023-03-02T01:21:51.560Z,1.26
2023-03-02T01:24:19.945Z,1.22
2023-03-02T01:26:48.222Z,1.17
2023-03-02T01:29:16.647Z,1.10
2023-03-02T01:31:46.379Z,1.04
2023-03-02T01:34:14.796Z,1.00
2023-03-02T01:36:45.654Z,0.95
2023-03-02T01:39:15.816Z,0.90
2023-03-02T01:41:45.052Z,0.86
2023-03-02T01:44:42.858Z,0.84
2023-03-02T01:47:18.659Z,0.83
2023-03-02T01:49:51.380Z,0.80
2023-03-02T01:52:20.940Z,0.76
2023-03-02T01:54:51.231Z,0.74
2023-03-02T01:57:24.440Z,0.73
2023-03-02T01:59:57.220Z,0.71
2023-03-02T02:02:28.208Z,0.68
2023-03-02T02:04:57.552Z,0.64
2023-03-02T02:07:25.867Z,0.65
2023-03-02T02:09:54.450Z,0.67
2023-03-02T02:12:24.432Z,0.69
2023-03-02T02:14:53.960Z,0.69
2023-03-02T02:17:22.362Z,0.68
2023-03-02T02:20:07.473Z,0.62
2023-03-02T02:22:58.888Z,0.59
2023-03-02T02:25:40.485Z,0.55
2023-03-02T02:28:17.423Z,0.53
2023-03-02T02:30:47.177Z,0.50
2023-03-02T02:33:18.425Z,0.48
2023-03-02T02:35:48.179Z,0.46
2023-03-02T02:38:21.567Z,0.47
2023-03-02T02:40:54.108Z,0.46
2023-03-02T02:43:24.273Z,0.42
2023-03-02T02:45:56.084Z,0.42
2023-03-02T02:48:26.980Z,0.38
2023-03-02T02:51:00.421Z,0.37
2023-03-02T02:53:34.937Z,0.36
2023-03-02T02:56:04.042Z,0.34
2023-03-02T02:58:36.053Z,0.34
2023-03-02T03:01:04.880Z,0.31
2023-03-02T03:03:35.834Z,0.30
2023-03-02T03:06:07.994Z,0.28
2023-03-02T03:08:55.887Z,0.24
2023-03-02T03:11:26.723Z,0.22
2023-03-02T03:14:01.618Z,0.20
2023-03-02T03:16:32.812Z,0.18
2023-03-02T03:19:07.542Z,0.16
2023-03-02T03:21:36.113Z,0.16
2023-03-02T03:24:04.594Z,0.13
2023-03-02T03:26:33.194Z,0.15
2023-03-02T03:29:03.756Z,0.15
2023-03-02T03:31:32.140Z,0.10
2023-03-02T03:34:01.098Z,0.08
2023-03-02T03:36:31.240Z,0.05
2023-03-02T03:39:00.432Z,0.04
2023-03-02T03:41:28.756Z,0.01
2023-03-02T03:43:57.142Z,-0.01
2023-03-02T03:46:26.983Z,-0.03
2023-03-02T03:48:55.366Z,-0.04
2023-03-02T03:51:23.845Z,-0.04
2023-03-02T03:53:59.828Z,-0.03
2023-03-02T03:56:28.325Z,-0.01
2023-03-02T03:59:06.345Z,0.01
2023-03-02T04:01:37.785Z,0.04
2023-03-02T04:04:08.386Z,0.04
2023-03-02T04:06:37.258Z,0.03
2023-03-02T04:09:06.720Z,-0.04
2023-03-02T04:11:37.709Z,-0.06
2023-03-02T04:14:06.885Z,-0.10
2023-03-02T04:16:37.937Z,-0.14
2023-03-02T04:19:09.429Z,-0.17
2023-03-02T04:21:38.441Z,-0.18
2023-03-02T04:24:08.179Z,-0.20
2023-03-02T04:26:38.945Z,-0.22
2023-03-02T04:29:07.770Z,-0.24
2023-03-02T04:31:40.547Z,-0.26
2023-03-02T04:34:09.083Z,-0.28
2023-03-02T04:36:39.629Z,-0.29
2023-03-02T04:39:09.376Z,-0.33
2023-03-02T04:41:38.011Z,-0.34
2023-03-02T04:44:06.404Z,-0.34
2023-03-02T04:46:35.680Z,-0.30
2023-03-02T04:49:06.602Z,-0.27
2023-03-02T04:51:37.353Z,-0.24
2023-03-02T04:54:07.907Z,-0.27
2023-03-02T04:56:36.263Z,-0.26
2023-03-02T04:59:04.850Z,-0.25
2023-03-02T05:01:33.658Z,-0.25
2023-03-02T05:04:03.123Z,-0.25
2023-03-02T05:06:33.179Z,-0.27
2023-03-02T05:09:01.825Z,-0.28
2023-03-02T05:11:30.180Z,-0.31
2023-03-02T05:14:01.692Z,-0.38
2023-03-02T05:16:33.153Z,-0.42
2023-03-02T05:19:02.997Z,-0.46
2023-03-02T05:21:32.863Z,-0.49
2023-03-02T05:24:01.401Z,-0.52
2023-03-02T05:26:30.070Z,-0.52
2023-03-02T05:28:58.863Z,-0.52
2023-03-02T05:31:32.533Z,-0.51
2023-03-02T05:34:00.878Z,-0.50
2023-03-02T05:36:29.272Z,-0.48
2023-03-02T05:38:59.075Z,-0.49
2023-03-02T05:41:27.966Z,-0.47
2023-03-02T05:43:58.713Z,-0.46
2023-03-02T05:46:27.464Z,-0.44
2023-03-02T05:48:55.892Z,-0.45
2023-03-02T05:51:24.221Z,-0.48
2023-03-02T05:53:52.606Z,-0.49
2023-03-02T05:56:22.535Z,-0.54
2023-03-02T05:58:50.988Z,-0.61
2023-03-02T06:01:19.314Z,-0.70
2023-03-02T06:03:47.930Z,-0.73
2023-03-02T06:06:16.388Z,-0.75
2023-03-02T06:08:45.598Z,-0.77
2023-03-02T06:11:14.212Z,-0.81
2023-03-02T06:13:43.876Z,-0.82
2023-03-02T06:16:12.345Z,-0.84
2023-03-02T06:18:41.662Z,-0.87
2023-03-02T06:21:10.173Z,-0.91
2023-03-02T06:23:38.568Z,-0.94
2023-03-02T06:26:10.017Z,-0.97
2023-03-02T06:28:51.366Z,-1.03
2023-03-02T06:31:22.960Z,-1.04
2023-03-02T06:33:51.559Z,-1.08
2023-03-02T06:36:20.001Z,-1.10
2023-03-02T06:38:48.489Z,-1.11
2023-03-02T06:41:17.272Z,-1.12
2023-03-02T06:43:45.923Z,-1.17
2023-03-02T06:46:14.368Z,-1.23
2023-03-02T06:48:44.224Z,-1.32
2023-03-02T06:51:13.251Z,-1.42
2023-03-02T06:53:41.634Z,-1.53
2023-03-02T06:56:10.294Z,-1.64
2023-03-02T06:58:38.738Z,-1.70
2023-03-02T07:01:08.840Z,-1.76
2023-03-02T07:03:37.723Z,-1.85
2023-03-02T07:06:07.855Z,-1.90
2023-03-02T07:08:36.440Z,-1.93
2023-03-02T07:11:08.391Z,-1.94
2023-03-02T07:13:37.990Z,-1.98
2023-03-02T07:16:10.983Z,-1.98
2023-03-02T07:18:39.952Z,-1.99
2023-03-02T07:21:09.870Z,-1.99
2023-03-02T07:23:38.256Z,-1.99
2023-03-02T07:26:08.781Z,-2.03
2023-03-02T07:28:39.485Z,-2.05
2023-03-02T07:31:08.808Z,-2.07
2023-03-02T07:33:38.004Z,-1.99
2023-03-02T07:36:07.399Z,-2.04
2023-03-02T07:38:37.741Z,-1.99
2023-03-02T07:41:08.942Z,-1.89
2023-03-02T07:43:38.047Z,-1.90
2023-03-02T07:46:07.038Z,-1.86
2023-03-02T07:48:35.972Z,-1.83
2023-03-02T07:51:06.059Z,-1.78
2023-03-02T07:53:34.476Z,-1.73
2023-03-02T07:56:09.011Z,-1.67
2023-03-02T07:58:38.034Z,-1.61
2023-03-02T08:01:06.652Z,-1.56
2023-03-02T08:03:35.443Z,-1.48
2023-03-02T08:06:09.473Z,-1.46
2023-03-02T08:08:38.694Z,-1.35
2023-03-02T08:11:09.698Z,-1.33
2023-03-02T08:13:38.528Z,-1.41
2023-03-02T08:16:09.539Z,-1.39
2023-03-02T08:18:38.411Z,-1.43
2023-03-02T08:21:13.001Z,-1.52
2023-03-02T08:23:41.470Z,-1.47
2023-03-02T08:26:13.858Z,-1.44
2023-03-02T08:28:43.254Z,-1.37
2023-03-02T08:31:12.415Z,-1.34
2023-03-02T08:33:41.015Z,-1.40
2023-03-02T08:36:29.097Z,-1.40
2023-03-02T08:38:57.522Z,-1.32
2023-03-02T08:41:27.267Z,-1.34
2023-03-02T08:43:57.005Z,-1.37
2023-03-02T08:46:25.368Z,-1.37
2023-03-02T08:48:53.688Z,-1.33
2023-03-02T08:51:24.074Z,-1.35
2023-03-02T08:53:55.479Z,-1.35
2023-03-02T08:56:28.709Z,-1.30
2023-03-02T08:59:00.257Z,-1.22
2023-03-02T09:01:31.132Z,-1.17
2023-03-02T09:04:00.811Z,-1.10
2023-03-02T09:06:31.222Z,-1.12
2023-03-02T09:08:59.702Z,-1.02
2023-03-02T09:11:29.576Z,-0.99
2023-03-02T09:13:58.023Z,-0.89
2023-03-02T09:16:29.122Z,-0.86
2023-03-02T09:18:57.667Z,-0.84
2023-03-02T09:21:26.552Z,-0.80
2023-03-02T09:23:57.963Z,-0.71
2023-03-02T09:26:27.283Z,-0.62
2023-03-02T09:28:57.354Z,-0.58
2023-03-02T09:31:26.565Z,-0.46
2023-03-02T09:33:57.098Z,-0.32
2023-03-02T09:36:27.361Z,-0.27
2023-03-02T09:38:56.076Z,-0.26
2023-03-02T09:41:46.706Z,-0.34
2023-03-02T09:44:41.438Z,-0.24
2023-03-02T09:47:33.384Z,-0.16
2023-03-02T09:50:13.171Z,-0.12
2023-03-02T09:52:48.762Z,0.00
2023-03-02T09:55:20.550Z,0.00
2023-03-02T09:57:49.246Z,0.01
2023-03-02T10:00:28.117Z,-0.05
2023-03-02T10:03:11.339Z,0.01
2023-03-02T10:05:47.782Z,-0.10
2023-03-02T10:08:18.394Z,-0.03
2023-03-02T10:10:54.272Z,0.12
2023-03-02T10:13:26.384Z,0.11
2023-03-02T10:16:13.810Z,0.24
2023-03-02T10:18:46.758Z,0.21
2023-03-02T10:21:23.375Z,0.06
2023-03-02T10:23:57.258Z,0.12
2023-03-02T10:26:39.441Z,0.09
2023-03-02T10:29:32.143Z,0.09
2023-03-02T10:32:13.561Z,0.03
2023-03-02T10:34:41.949Z,0.18
2023-03-02T10:37:14.869Z,0.27
2023-03-02T10:39:43.542Z,0.25
2023-03-02T10:42:16.792Z,0.43
2023-03-02T10:44:49.268Z,0.51
2023-03-02T10:47:24.017Z,0.59
2023-03-02T10:49:54.359Z,0.77
2023-03-02T10:52:25.113Z,1.04
2023-03-02T10:55:03.387Z,1.26
2023-03-02T10:57:37.745Z,1.57
2023-03-02T11:00:14.855Z,1.40
2023-03-02T11:02:52.532Z,1.49
2023-03-02T11:05:25.043Z,1.35
2023-03-02T11:07:54.943Z,1.35
2023-03-02T11:10:27.534Z,1.22
2023-03-02T11:12:55.903Z,1.29
2023-03-02T11:15:27.466Z,1.51
2023-03-02T11:18:02.990Z,1.82
2023-03-02T11:20:35.085Z,2.13
2023-03-02T11:23:31.896Z,2.50
2023-03-02T11:26:07.258Z,2.71
2023-03-02T11:28:48.380Z,2.84
2023-03-02T11:31:27.657Z,2.83
2023-03-02T11:34:18.205Z,3.19
2023-03-02T11:36:59.877Z,3.15
2023-03-02T11:39:41.148Z,3.01
2023-03-02T11:42:20.787Z,2.92
2023-03-02T11:44:49.934Z,3.26
2023-03-02T11:47:20.746Z,3.23
2023-03-02T11:49:56.104Z,3.01
2023-03-02T11:52:27.382Z,3.39
2023-03-02T11:55:01.334Z,3.14
2023-03-02T11:57:34.394Z,3.40
2023-03-02T12:00:08.271Z,3.33
2023-03-02T12:02:36.706Z,3.13
2023-03-02T12:05:22.832Z,3.36
2023-03-02T12:07:58.377Z,3.47
2023-03-02T12:10:32.995Z,4.01
2023-03-02T12:13:13.774Z,3.85
2023-03-02T12:15:43.677Z,3.77
2023-03-02T12:18:46.027Z,4.09
2023-03-02T12:21:18.823Z,3.96
2023-03-02T12:24:03.779Z,3.93
2023-03-02T12:26:36.432Z,4.29
2023-03-02T12:29:22.613Z,4.61
2023-03-02T12:31:53.612Z,5.10
2023-03-02T12:34:37.716Z,5.02
2023-03-02T12:37:16.923Z,5.07
2023-03-02T12:40:29.502Z,5.68
2023-03-02T12:43:18.631Z,5.99
2023-03-02T12:46:13.737Z,6.58
2023-03-02T12:49:01.271Z,6.61
2023-03-02T12:51:31.746Z,6.56
2023-03-02T12:54:06.242Z,6.91
2023-03-02T12:56:34.987Z,6.49
2023-03-02T12:59:03.650Z,6.23
2023-03-02T13:01:33.940Z,6.39
2023-03-02T13:04:02.528Z,6.58
2023-03-02T13:06:33.446Z,6.76
2023-03-02T13:09:02.117Z,6.92
2023-03-02T13:11:35.421Z,6.82
2023-03-02T13:14:20.010Z,7.14
2023-03-02T13:16:57.216Z,6.90
2023-03-02T13:19:27.093Z,6.54
2023-03-02T13:21:55.748Z,6.90
2023-03-02T13:24:36.102Z,7.01
2023-03-02T13:27:09.144Z,7.15
2023-03-02T13:29:37.502Z,7.08
2023-03-02T13:32:20.964Z,7.01
2023-03-02T13:34:51.635Z,6.64
2023-03-02T13:37:31.926Z,6.67
2023-03-02T13:40:02.507Z,6.76
2023-03-02T13:42:38.102Z,6.20
2023-03-02T13:45:24.015Z,6.30
2023-03-02T13:47:52.712Z,6.52
2023-03-02T13:50:23.544Z,6.40
2023-03-02T13:52:53.640Z,6.37
2023-03-02T13:55:25.731Z,6.18
2023-03-02T13:57:57.078Z,6.11
2023-03-02T14:00:32.354Z,6.07
2023-03-02T14:03:01.307Z,6.12
2023-03-02T14:05:33.314Z,6.08
2023-03-02T14:08:02.878Z,5.93
2023-03-02T14:10:31.377Z,5.72
2023-03-02T14:13:05.488Z,5.39
2023-03-02T14:15:34.574Z,5.02
2023-03-02T14:18:02.986Z,4.95
2023-03-02T14:20:31.449Z,4.84
2023-03-02T14:23:03.416Z,4.64
2023-03-02T14:25:31.926Z,4.53
2023-03-02T14:28:01.606Z,4.58
2023-03-02T14:30:30.019Z,4.52
2023-03-02T14:32:58.388Z,4.35
2023-03-02T14:35:27.016Z,3.81
2023-03-02T14:37:55.426Z,3.55
2023-03-02T14:40:29.000Z,3.31
2023-03-02T14:42:57.428Z,3.36
2023-03-02T14:45:30.894Z,3.25
2023-03-02T14:47:59.347Z,3.27
2023-03-02T14:50:27.847Z,3.00
2023-03-02T14:52:58.713Z,2.53
2023-03-02T14:55:28.725Z,2.24
2023-03-02T14:58:00.177Z,2.23
2023-03-02T15:00:30.000Z,2.24
2023-03-02T15:02:59.288Z,2.19
2023-03-02T15:05:27.680Z,2.21
2023-03-02T15:07:58.815Z,2.15
2023-03-02T15:10:27.352Z,2.02
2023-03-02T15:12:55.683Z,1.97
2023-03-02T15:15:25.095Z,2.04
2023-03-02T15:17:57.844Z,2.04
2023-03-02T15:20:26.177Z,1.97
2023-03-02T15:22:54.512Z,1.90
2023-03-02T15:25:23.992Z,1.93
2023-03-02T15:27:52.877Z,1.95
2023-03-02T15:30:21.780Z,1.93
2023-03-02T15:32:50.169Z,1.87
2023-03-02T15:35:20.098Z,1.59
2023-03-02T15:37:48.428Z,1.51
2023-03-02T15:40:17.024Z,1.54
2023-03-02T15:42:45.360Z,1.62
2023-03-02T15:45:14.162Z,1.64
2023-03-02T15:47:42.473Z,1.64
2023-03-02T15:50:12.552Z,1.56
2023-03-02T15:52:42.883Z,1.49
2023-03-02T15:55:11.375Z,1.48
2023-03-02T15:57:40.144Z,1.42
2023-03-02T16:00:09.966Z,1.43
2023-03-02T16:02:38.573Z,1.44
2023-03-02T16:05:07.692Z,1.35
2023-03-02T16:07:37.180Z,1.25
2023-03-02T16:10:08.566Z,1.08
2023-03-02T16:12:37.081Z,1.16
2023-03-02T16:15:06.461Z,1.02
2023-03-02T16:17:35.016Z,0.91
2023-03-02T16:20:03.505Z,0.90
2023-03-02T16:22:31.915Z,0.90
2023-03-02T16:25:00.307Z,0.84
2023-03-02T16:27:30.465Z,0.73
2023-03-02T16:29:58.846Z,0.72
2023-03-02T16:32:27.444Z,0.74
2023-03-02T16:34:56.218Z,0.71
2023-03-02T16:37:24.728Z,0.57
2023-03-02T16:39:53.181Z,0.66
2023-03-02T16:42:21.697Z,0.72
2023-03-02T16:44:52.275Z,0.77
2023-03-02T16:47:20.830Z,0.80
2023-03-02T16:49:49.398Z,0.84
2023-03-02T16:52:18.560Z,0.85
2023-03-02T16:54:47.037Z,0.84
2023-03-02T16:57:15.395Z,0.82
2023-03-02T16:59:43.871Z,0.88
2023-03-02T17:02:14.124Z,0.86
2023-03-02T17:04:42.931Z,0.82
2023-03-02T17:07:11.470Z,0.77
2023-03-02T17:09:41.453Z,0.79
2023-03-02T17:12:09.887Z,0.79
2023-03-02T17:14:38.471Z,0.76
2023-03-02T17:17:06.881Z,0.78
2023-03-02T17:19:36.651Z,0.69
2023-03-02T17:22:05.437Z,0.73
2023-03-02T17:24:34.447Z,0.63
2023-03-02T17:27:04.229Z,0.52
2023-03-02T17:29:33.871Z,0.50
2023-03-02T17:32:02.419Z,0.54
2023-03-02T17:34:31.361Z,0.56
2023-03-02T17:37:01.636Z,0.57
2023-03-02T17:39:30.643Z,0.60
2023-03-02T17:41:59.791Z,0.63
2023-03-02T17:44:28.850Z,0.52
2023-03-02T17:46:57.335Z,0.57
2023-03-02T17:49:25.764Z,0.61
2023-03-02T17:51:54.298Z,0.63
2023-03-02T17:54:24.139Z,0.64
2023-03-02T17:56:52.576Z,0.67
2023-03-02T17:59:21.169Z,0.69
2023-03-02T18:01:49.771Z,0.64
2023-03-02T18:04:18.603Z,0.59
2023-03-02T18:06:47.043Z,0.56
2023-03-02T18:09:15.666Z,0.53
2023-03-02T18:11:45.937Z,0.53
2023-03-02T18:14:17.276Z,0.50
2023-03-02T18:16:46.225Z,0.49
2023-03-02T18:19:14.789Z,0.39
2023-03-02T18:21:43.201Z,0.33
2023-03-02T18:24:11.819Z,0.29
2023-03-02T18:26:40.307Z,0.33
2023-03-02T18:29:10.150Z,0.33
2023-03-02T18:31:38.646Z,0.35
2023-03-02T18:34:07.094Z,0.30
2023-03-02T18:36:35.547Z,0.28
2023-03-02T18:39:04.375Z,0.28
2023-03-02T18:41:32.858Z,0.26
2023-03-02T18:44:03.591Z,0.20
2023-03-02T18:46:34.574Z,0.16
2023-03-02T18:49:04.448Z,0.20
2023-03-02T18:51:33.027Z,0.20
2023-03-02T18:54:01.416Z,0.22
2023-03-02T18:56:29.827Z,0.22
2023-03-02T18:58:58.205Z,0.24
2023-03-02T19:01:26.640Z,0.29
2023-03-02T19:03:57.608Z,0.28
2023-03-02T19:06:26.224Z,0.29
2023-03-02T19:08:55.050Z,0.23
2023-03-02T19:11:23.913Z,0.26
2023-03-02T19:13:52.249Z,0.23
2023-03-02T19:16:20.730Z,0.23
2023-03-02T19:18:50.073Z,0.22
2023-03-02T19:21:19.923Z,0.12
2023-03-02T19:23:48.580Z,0.10
2023-03-02T19:26:17.019Z,0.06
2023-03-02T19:28:45.585Z,0.05
2023-03-02T19:31:14.222Z,0.05
2023-03-02T19:33:45.085Z,0.06
2023-03-02T19:36:15.108Z,-0.09
2023-03-02T19:38:44.876Z,-0.21
2023-03-02T19:41:15.423Z,-0.27
2023-03-02T19:43:46.256Z,-0.31
2023-03-02T19:46:15.675Z,-0.29
2023-03-02T19:48:45.021Z,-0.28
2023-03-02T19:51:15.061Z,-0.23
2023-03-02T19:53:46.161Z,-0.19
2023-03-02T19:56:22.550Z,-0.18
2023-03-02T19:58:53.897Z,-0.19
2023-03-02T20:01:30.387Z,-0.27
2023-03-02T20:04:00.054Z,-0.32
2023-03-02T20:06:31.481Z,-0.34
2023-03-02T20:09:03.553Z,-0.38
2023-03-02T20:11:32.340Z,-0.37
2023-03-02T20:14:02.160Z,-0.36
2023-03-02T20:16:31.318Z,-0.30
2023-03-02T20:19:01.933Z,-0.23
2023-03-02T20:21:30.891Z,-0.24
2023-03-02T20:23:59.729Z,-0.18
2023-03-02T20:26:29.554Z,-0.17
2023-03-02T20:28:59.565Z,-0.10
2023-03-02T20:31:28.130Z,-0.15
2023-03-02T20:33:57.371Z,-0.18
2023-03-02T20:36:29.511Z,-0.19
2023-03-02T20:39:01.317Z,-0.24
2023-03-02T20:41:31.494Z,-0.30
2023-03-02T20:43:59.886Z,-0.37
2023-03-02T20:46:31.620Z,-0.37
2023-03-02T20:49:00.686Z,-0.47
2023-03-02T20:51:29.808Z,-0.53
2023-03-02T20:53:58.462Z,-0.54
2023-03-02T20:56:26.925Z,-0.56
2023-03-02T20:58:57.063Z,-0.61
2023-03-02T21:01:26.143Z,-0.62
2023-03-02T21:03:54.634Z,-0.60
2023-03-02T21:06:23.057Z,-0.59
2023-03-02T21:08:52.597Z,-0.55
2023-03-02T21:11:22.353Z,-0.57
2023-03-02T21:13:52.804Z,-0.56
2023-03-02T21:16:24.975Z,-0.54
2023-03-02T21:18:54.766Z,-0.54
2023-03-02T21:21:32.634Z,-0.50
2023-03-02T21:24:09.453Z,-0.44
2023-03-02T21:26:37.913Z,-0.43
2023-03-02T21:29:06.540Z,-0.38
2023-03-02T21:31:36.318Z,-0.38
2023-03-02T21:34:04.905Z,-0.47
2023-03-02T21:36:33.624Z,-0.61
2023-03-02T21:39:02.072Z,-0.63
2023-03-02T21:41:30.429Z,-0.72
2023-03-02T21:43:58.823Z,-0.74
2023-03-02T21:46:27.232Z,-0.85
2023-03-02T21:48:57.030Z,-0.84
2023-03-02T21:51:25.797Z,-0.88
2023-03-02T21:53:54.172Z,-0.87
2023-03-02T21:56:25.189Z,-0.91
2023-03-02T21:58:55.602Z,-0.91
2023-03-02T22:01:25.475Z,-0.87
2023-03-02T22:03:54.290Z,-0.86
2023-03-02T22:06:27.134Z,-0.84
2023-03-02T22:08:56.940Z,-0.85
2023-03-02T22:11:26.933Z,-0.85
2023-03-02T22:13:57.765Z,-0.78
2023-03-02T22:16:28.179Z,-0.72
2023-03-02T22:18:58.557Z,-0.75
2023-03-02T22:21:37.731Z,-0.74
2023-03-02T22:24:19.752Z,-0.76
2023-03-02T22:26:50.457Z,-0.76
2023-03-02T22:29:24.092Z,-0.71
2023-03-02T22:31:54.826Z,-0.69
2023-03-02T22:34:27.289Z,-0.67
2023-03-02T22:37:00.870Z,-0.79
2023-03-02T22:39:31.611Z,-0.80
2023-03-02T22:42:06.264Z,-0.78
2023-03-02T22:44:35.244Z,-0.86
2023-03-02T22:47:07.415Z,-0.92
2023-03-02T22:49:35.697Z,-0.94
2023-03-02T22:52:13.920Z,-0.94
2023-03-02T22:54:42.267Z,-0.90
2023-03-02T22:57:30.365Z,-0.83
2023-03-02T23:00:31.802Z,-0.83
2023-03-02T23:03:00.110Z,-0.78
2023-03-02T23:05:30.974Z,-0.81
2023-03-02T23:08:18.465Z,-0.77
2023-03-02T23:10:47.029Z,-0.72
2023-03-02T23:13:17.559Z,-0.69
2023-03-02T23:15:47.140Z,-0.63
2023-03-02T23:18:21.404Z,-0.64
2023-03-02T23:20:50.602Z,-0.63
2023-03-02T23:23:21.634Z,-0.59
2023-03-02T23:25:50.608Z,-0.61
2023-03-02T23:28:18.952Z,-0.73
2023-03-02T23:30:47.579Z,-0.82
2023-03-02T23:33:16.224Z,-0.86
2023-03-02T23:35:44.591Z,-0.89
2023-03-02T23:38:12.902Z,-0.87
2023-03-02T23:40:42.615Z,-0.90
2023-03-02T23:43:10.954Z,-0.88
2023-03-02T23:45:39.934Z,-0.87
2023-03-02T23:48:08.282Z,-0.89
2023-03-02T23:50:36.598Z,-0.89
2023-03-02T23:53:05.164Z,-0.84
2023-03-02T23:55:33.829Z,-0.88
2023-03-02T23:58:03.744Z,-0.88
